Time;durP1;ratioP1;P1;durP2;ratioP2;P2;SDS_P1;SDS_P2;PMS_P1;PMS_P2;Temp;Humidity;BMP_temperature;BMP_pressure;BME280_temperature;BME280_humidity;BME280_pressure;Samples;Min_cycle;Max_cycle;Signal;HPM_P1;HPM_P2
2022/05/10 00:01:39;;;;;;;;;;;;;;;28.72;24.24;101334.03;4996432;28;996;-31
2022/05/10 00:04:05;;;;;;;;;;;;;;;28.79;24.17;101326.03;4997459;28;822;-32
2022/05/10 00:06:42;;;;;;;;;;;;;;;28.81;23.98;101326.66;4997528;28;818;-31
2022/05/10 00:09:07;;;;;;;;;;;;;;;28.78;24.33;101332.44;4974481;28;1954;-32
2022/05/10 00:11:33;;;;;;;;;;;;;;;28.67;24.41;101327.44;4996386;28;901;-32
2022/05/10 00:13:58;;;;;;;;;;;;;;;28.69;24.67;101326.25;4997041;28;818;-32
2022/05/10 00:16:23;;;;;;;;;;;;;;;28.80;24.26;101329.56;4996650;28;996;-32
2022/05/10 00:18:49;;;;;;;;;;;;;;;28.84;24.39;101326.28;4996937;28;1449;-31
2022/05/10 00:21:19;;;;;;;;;;;;;;;28.28;23.23;101327.31;4990767;28;1026;-32
2022/05/10 00:23:44;;;;;;;;;;;;;;;26.07;24.58;101317.00;4979355;28;1103;-31
2022/05/10 00:26:09;;;;;;;;;;;;;;;25.19;25.59;101310.56;4997080;28;1028;-32
2022/05/10 00:28:35;;;;;;;;;;;;;;;24.99;25.74;101317.16;4996641;28;1898;-32
2022/05/10 00:31:00;;;;;;;;;;;;;;;24.72;25.66;101311.66;4996426;28;918;-32
2022/05/10 00:33:26;;;;;;;;;;;;;;;24.82;25.83;101298.94;4979460;28;855;-32
2022/05/10 00:35:51;;;;;;;;;;;;;;;24.72;25.55;101290.13;4997123;28;846;-32
2022/05/10 00:38:17;;;;;;;;;;;;;;;25.16;25.42;101286.66;4979339;28;858;-32
2022/05/10 00:40:42;;;;;;;;;;;;;;;26.17;24.51;101296.16;4996172;28;899;-31
2022/05/10 00:43:22;;;;;;;;;;;;;;;26.73;23.98;101290.25;4996811;28;827;-31
2022/05/10 00:45:51;;;;;;;;;;;;;;;27.10;23.08;101298.88;4996405;28;984;-31
2022/05/10 00:48:28;;;;;;;;;;;;;;;27.25;23.03;101295.50;4996811;28;1867;-32
2022/05/10 00:50:55;;;;;;;;;;;;;;;27.31;23.10;101288.56;4996748;28;746;-31
2022/05/10 00:53:22;;;;;;;;;;;;;;;27.34;23.48;101282.81;4996128;28;1028;-33
2022/05/10 00:55:54;;;;;;;;;;;;;;;27.35;23.41;101287.19;4979692;28;856;-33
2022/05/10 00:58:22;;;;;;;;;;;;;;;27.33;23.19;101286.53;4996826;28;815;-31
2022/05/10 01:00:48;;;;;;;;;;;;;;;27.25;23.54;101292.78;4995909;28;873;-32
2022/05/10 01:03:13;;;;;;;;;;;;;;;27.52;23.40;101288.03;4979024;28;827;-32
2022/05/10 01:05:47;;;;;;;;;;;;;;;27.71;22.99;101288.69;4996319;28;762;-31
2022/05/10 01:08:12;;;;;;;;;;;;;;;27.79;22.72;101288.66;4978740;28;1944;-32
2022/05/10 01:10:52;;;;;;;;;;;;;;;27.56;23.06;101291.22;4996496;28;924;-31
2022/05/10 01:13:20;;;;;;;;;;;;;;;27.58;23.00;101283.78;4996787;28;874;-32
2022/05/10 01:15:56;;;;;;;;;;;;;;;27.47;23.59;101285.00;4996237;28;901;-32
2022/05/10 01:18:22;;;;;;;;;;;;;;;27.44;23.71;101282.63;4978150;28;877;-33
2022/05/10 01:20:47;;;;;;;;;;;;;;;27.14;24.37;101283.19;4996031;28;1046;-33
2022/05/10 01:23:12;;;;;;;;;;;;;;;26.82;24.83;101283.00;4998709;28;878;-34
2022/05/10 01:25:43;;;;;;;;;;;;;;;26.62;25.38;101282.47;5000180;28;1547;-33
2022/05/10 01:28:20;;;;;;;;;;;;;;;26.71;25.82;101275.25;4999949;28;1914;-31
2022/05/10 01:30:45;;;;;;;;;;;;;;;27.26;25.21;101275.56;4999726;28;854;-31
2022/05/10 01:33:30;;;;;;;;;;;;;;;27.70;24.80;101281.56;5000268;28;873;-33
2022/05/10 01:35:55;;;;;;;;;;;;;;;26.92;25.23;101280.13;4982981;28;746;-32
2022/05/10 01:38:20;;;;;;;;;;;;;;;26.98;25.39;101276.75;5000063;28;933;-32
2022/05/10 01:40:46;;;;;;;;;;;;;;;27.22;25.51;101271.53;4999825;28;857;-32
2022/05/10 01:43:12;;;;;;;;;;;;;;;27.48;25.21;101279.41;4981301;28;1034;-32
2022/05/10 01:45:39;;;;;;;;;;;;;;;27.60;24.78;101279.03;4999442;28;914;-32
2022/05/10 01:48:05;;;;;;;;;;;;;;;27.93;24.51;101280.81;4982165;28;1890;-32
2022/05/10 01:50:30;;;;;;;;;;;;;;;27.85;24.74;101276.28;4981869;28;819;-32
2022/05/10 01:53:04;;;;;;;;;;;;;;;27.81;24.76;101275.78;4999394;28;732;-32
2022/05/10 01:55:31;;;;;;;;;;;;;;;27.79;24.47;101282.41;4999649;28;783;-32
2022/05/10 01:57:59;;;;;;;;;;;;;;;27.82;24.46;101280.19;4998637;28;1420;-31
2022/05/10 02:00:26;;;;;;;;;;;;;;;27.91;24.76;101280.97;4990715;28;940;-31
2022/05/10 02:02:56;;;;;;;;;;;;;;;28.08;24.38;101272.78;4999742;28;844;-31
2022/05/10 02:05:30;;;;;;;;;;;;;;;28.00;24.54;101276.38;4981580;28;817;-32
2022/05/10 02:07:56;;;;;;;;;;;;;;;28.02;24.49;101276.22;4999353;28;1898;-32
2022/05/10 02:10:26;;;;;;;;;;;;;;;27.93;24.67;101268.13;4981561;28;850;-31
2022/05/10 02:13:03;;;;;;;;;;;;;;;27.98;24.80;101270.31;4999234;28;781;-31
2022/05/10 02:15:38;;;;;;;;;;;;;;;28.13;24.60;101269.56;4981904;28;837;-31
2022/05/10 02:18:06;;;;;;;;;;;;;;;28.17;24.16;101265.47;4999320;28;826;-31
2022/05/10 02:20:37;;;;;;;;;;;;;;;28.13;24.27;101269.56;4998609;28;1057;-31
2022/05/10 02:23:06;;;;;;;;;;;;;;;28.14;24.32;101265.84;4999514;28;919;-31
2022/05/10 02:25:42;;;;;;;;;;;;;;;28.13;24.45;101259.59;4981527;28;1221;-31
2022/05/10 02:28:10;;;;;;;;;;;;;;;28.22;24.33;101254.97;4998602;28;1895;-31
2022/05/10 02:30:35;;;;;;;;;;;;;;;28.22;24.24;101255.81;4998806;28;849;-31
2022/05/10 02:33:10;;;;;;;;;;;;;;;28.21;24.24;101259.53;4999226;28;880;-31
2022/05/10 02:35:42;;;;;;;;;;;;;;;28.16;24.65;101256.50;4980162;28;755;-31
2022/05/10 02:38:08;;;;;;;;;;;;;;;28.14;24.46;101257.72;4992758;28;1384;-31
2022/05/10 02:40:33;;;;;;;;;;;;;;;28.29;24.47;101252.41;4980487;28;1020;-31
2022/05/10 02:42:58;;;;;;;;;;;;;;;28.36;23.88;101248.81;4997072;28;760;-32
2022/05/10 02:45:24;;;;;;;;;;;;;;;28.30;23.75;101249.50;4997422;28;870;-32
2022/05/10 02:47:49;;;;;;;;;;;;;;;28.23;24.35;101249.38;4997851;28;1890;-31
2022/05/10 02:50:26;;;;;;;;;;;;;;;28.22;24.54;101249.56;4998914;28;871;-31
2022/05/10 02:52:51;;;;;;;;;;;;;;;28.25;24.47;101249.22;4998802;28;807;-31
2022/05/10 02:55:17;;;;;;;;;;;;;;;28.39;24.00;101258.47;4992484;28;758;-31
2022/05/10 02:57:43;;;;;;;;;;;;;;;28.32;24.09;101263.72;4980777;28;950;-31
2022/05/10 03:00:09;;;;;;;;;;;;;;;28.29;24.35;101257.81;4997526;28;987;-32
2022/05/10 03:02:35;;;;;;;;;;;;;;;28.02;23.54;101262.69;4993395;28;1087;-34
2022/05/10 03:05:00;;;;;;;;;;;;;;;25.84;21.67;101252.91;4980617;28;1397;-33
2022/05/10 03:07:25;;;;;;;;;;;;;;;24.94;22.47;101245.78;4998155;28;990;-33
2022/05/10 03:09:51;;;;;;;;;;;;;;;24.78;22.05;101259.91;4998297;28;1906;-33
2022/05/10 03:12:16;;;;;;;;;;;;;;;23.99;22.73;101260.41;4995247;28;1179;-33
2022/05/10 03:14:41;;;;;;;;;;;;;;;22.49;24.61;101256.25;4997665;28;846;-35
2022/05/10 03:17:10;;;;;;;;;;;;;;;22.15;25.25;101256.63;4998080;28;730;-33
2022/05/10 03:19:35;;;;;;;;;;;;;;;21.71;26.17;101260.38;4997947;28;917;-35
2022/05/10 03:22:01;;;;;;;;;;;;;;;21.37;26.61;101258.78;4997908;28;1188;-35
2022/05/10 03:24:26;;;;;;;;;;;;;;;21.47;26.23;101256.16;4998413;28;883;-34
2022/05/10 03:26:51;;;;;;;;;;;;;;;21.57;26.08;101253.53;4990901;28;1245;-34
2022/05/10 03:29:17;;;;;;;;;;;;;;;22.19;24.96;101268.75;4994667;28;1973;-34
2022/05/10 03:31:42;;;;;;;;;;;;;;;21.37;25.73;101265.97;4997740;28;1060;-33
2022/05/10 03:36:52;;;;;;;;;;;;;;;24.67;21.75;101284.38;4997585;28;661;-34
2022/05/10 03:39:17;;;;;;;;;;;;;;;24.99;21.06;101288.34;4997678;28;870;-36
2022/05/10 03:41:42;;;;;;;;;;;;;;;25.06;20.92;101285.91;4979169;28;1065;-36
2022/05/10 03:44:07;;;;;;;;;;;;;;;25.04;21.20;101287.91;4997647;28;742;-34
2022/05/10 03:46:33;;;;;;;;;;;;;;;25.26;21.61;101294.63;4997042;28;1043;-36
2022/05/10 03:48:58;;;;;;;;;;;;;;;25.49;21.56;101295.97;4997017;28;1906;-35
2022/05/10 03:51:24;;;;;;;;;;;;;;;25.59;21.65;101295.88;4997173;28;1059;-34
2022/05/10 03:53:49;;;;;;;;;;;;;;;25.78;21.73;101295.66;4994702;28;1348;-33
2022/05/10 03:56:14;;;;;;;;;;;;;;;25.54;22.12;101297.16;4997174;28;881;-32
2022/05/10 03:58:39;;;;;;;;;;;;;;;25.89;21.73;101299.09;4996864;28;1282;-34
2022/05/10 04:01:07;;;;;;;;;;;;;;;23.52;24.80;101296.22;4996817;28;1155;-34
2022/05/10 04:03:33;;;;;;;;;;;;;;;22.60;26.14;101298.22;4995382;28;1494;-34
2022/05/10 04:05:58;;;;;;;;;;;;;;;22.98;25.59;101313.63;4996194;28;1509;-34
2022/05/10 04:08:24;;;;;;;;;;;;;;;24.72;23.51;101295.50;4992932;28;1898;-33
2022/05/10 04:10:49;;;;;;;;;;;;;;;25.54;22.44;101299.88;4996162;28;819;-33
2022/05/10 04:13:15;;;;;;;;;;;;;;;25.63;22.34;101291.88;4996490;28;850;-33
2022/05/10 04:15:40;;;;;;;;;;;;;;;25.94;22.20;101295.91;4996479;28;877;-33
2022/05/10 04:18:05;;;;;;;;;;;;;;;26.05;21.87;101301.00;4997079;28;823;-33
2022/05/10 04:20:30;;;;;;;;;;;;;;;26.22;21.75;101307.31;4996880;28;1002;-33
2022/05/10 04:22:56;;;;;;;;;;;;;;;26.40;21.58;101317.16;4997101;28;870;-34
2022/05/10 04:25:25;;;;;;;;;;;;;;;26.37;21.57;101314.78;4997099;28;743;-34
2022/05/10 04:27:51;;;;;;;;;;;;;;;26.38;21.83;101321.88;4996386;28;1907;-34
2022/05/10 04:30:16;;;;;;;;;;;;;;;26.35;21.73;101317.66;4996303;28;822;-34
2022/05/10 04:32:42;;;;;;;;;;;;;;;26.35;22.28;101319.50;4996962;28;782;-34
2022/05/10 04:35:07;;;;;;;;;;;;;;;26.63;21.70;101322.78;4996682;28;906;-34
2022/05/10 04:37:32;;;;;;;;;;;;;;;26.85;21.49;101325.84;4996567;28;957;-34
2022/05/10 04:42:45;;;;;;;;;;;;;;;26.72;21.93;101323.66;4996152;28;835;-34
2022/05/10 04:45:10;;;;;;;;;;;;;;;25.28;23.86;101322.25;4996293;28;874;-34
2022/05/10 04:47:36;;;;;;;;;;;;;;;24.32;25.23;101329.88;4996617;28;943;-34
2022/05/10 04:50:01;;;;;;;;;;;;;;;24.91;24.88;101325.97;4996864;28;1959;-34
2022/05/10 04:52:26;;;;;;;;;;;;;;;26.03;23.36;101329.97;4996426;28;811;-34
2022/05/10 04:54:52;;;;;;;;;;;;;;;26.45;22.83;101331.00;4996285;28;814;-34
2022/05/10 04:57:17;;;;;;;;;;;;;;;26.71;22.63;101327.34;4997221;28;855;-33
2022/05/10 04:59:42;;;;;;;;;;;;;;;26.53;22.83;101325.63;5000238;28;910;-33
2022/05/10 05:02:08;;;;;;;;;;;;;;;25.44;25.41;101316.13;5000421;28;1075;-34
2022/05/10 05:04:33;;;;;;;;;;;;;;;24.97;25.98;101320.00;5000036;28;767;-31
2022/05/10 05:06:58;;;;;;;;;;;;;;;24.72;27.00;101324.25;5000223;28;854;-31
2022/05/10 05:09:24;;;;;;;;;;;;;;;24.62;26.07;101325.19;5000475;28;1902;-34
2022/05/10 05:11:49;;;;;;;;;;;;;;;24.93;26.03;101332.06;5000350;28;967;-33
2022/05/10 05:14:14;;;;;;;;;;;;;;;25.14;25.97;101322.81;5000185;28;834;-32
2022/05/10 05:16:39;;;;;;;;;;;;;;;25.23;25.90;101326.41;5000268;28;1023;-32
2022/05/10 05:19:05;;;;;;;;;;;;;;;25.40;26.33;101330.06;5000430;28;781;-31
2022/05/10 05:21:30;;;;;;;;;;;;;;;25.33;25.50;101332.56;4999527;28;902;-32
2022/05/10 05:23:56;;;;;;;;;;;;;;;25.63;25.28;101338.53;5000363;28;734;-34
2022/05/10 05:26:22;;;;;;;;;;;;;;;25.39;25.85;101347.25;4999775;28;1098;-35
2022/05/10 05:28:47;;;;;;;;;;;;;;;25.13;26.29;101345.34;5000135;28;1918;-34
2022/05/10 05:31:12;;;;;;;;;;;;;;;25.32;26.07;101349.72;4999760;28;1055;-32
2022/05/10 05:33:38;;;;;;;;;;;;;;;25.42;26.68;101346.94;4999768;28;999;-33
2022/05/10 05:36:03;;;;;;;;;;;;;;;25.43;25.68;101343.22;4999429;28;910;-31
2022/05/10 05:38:29;;;;;;;;;;;;;;;25.31;26.15;101340.78;5000055;28;815;-34
2022/05/10 05:40:54;;;;;;;;;;;;;;;25.37;25.80;101339.34;5000087;28;779;-33
2022/05/10 05:43:20;;;;;;;;;;;;;;;25.46;25.87;101340.22;5000159;28;853;-32
2022/05/10 05:45:45;;;;;;;;;;;;;;;25.46;25.73;101350.16;4999459;28;838;-34
2022/05/10 05:48:10;;;;;;;;;;;;;;;25.65;26.63;101351.84;4999572;28;1890;-32
2022/05/10 05:50:36;;;;;;;;;;;;;;;25.58;26.11;101348.88;4999702;28;796;-33
2022/05/10 05:53:01;;;;;;;;;;;;;;;25.51;26.69;101345.97;4999610;28;839;-32
2022/05/10 05:55:26;;;;;;;;;;;;;;;25.43;26.29;101343.22;4999418;28;786;-31
2022/05/10 05:57:52;;;;;;;;;;;;;;;25.84;25.95;101347.25;4998935;28;945;-33
2022/05/10 06:00:18;;;;;;;;;;;;;;;26.06;25.79;101348.50;4999552;28;814;-33
2022/05/10 06:02:44;;;;;;;;;;;;;;;26.02;25.72;101349.84;4999316;28;882;-32
2022/05/10 06:05:09;;;;;;;;;;;;;;;26.15;26.03;101350.25;4999266;28;810;-35
2022/05/10 06:07:34;;;;;;;;;;;;;;;26.05;25.97;101346.84;4999660;28;911;-34
2022/05/10 06:10:00;;;;;;;;;;;;;;;25.83;25.95;101342.84;4998972;28;1954;-34
2022/05/10 06:12:25;;;;;;;;;;;;;;;26.15;26.11;101346.72;4998896;28;894;-33
2022/05/10 06:14:51;;;;;;;;;;;;;;;25.99;24.32;101347.50;4999138;28;900;-34
2022/05/10 06:17:16;;;;;;;;;;;;;;;25.94;24.93;101350.66;4999201;28;832;-30
2022/05/10 06:19:42;;;;;;;;;;;;;;;25.98;24.75;101343.06;4998859;28;779;-30
2022/05/10 06:22:07;;;;;;;;;;;;;;;25.86;24.01;101345.22;4998691;28;1126;-27
2022/05/10 06:24:33;;;;;;;;;;;;;;;26.02;23.43;101348.00;4980431;28;1078;-28
2022/05/10 06:26:58;;;;;;;;;;;;;;;25.93;22.50;101354.34;4998560;28;1007;-29
2022/05/10 06:29:23;;;;;;;;;;;;;;;25.87;23.33;101355.00;4998642;28;1954;-29
2022/05/10 06:31:48;;;;;;;;;;;;;;;25.92;23.41;101358.88;4998189;28;1012;-29
2022/05/10 06:34:14;;;;;;;;;;;;;;;25.90;23.42;101360.06;4998429;28;1063;-28
2022/05/10 06:36:40;;;;;;;;;;;;;;;25.81;23.78;101356.47;4998368;28;1181;-27
2022/05/10 06:39:05;;;;;;;;;;;;;;;26.03;23.60;101351.53;4998373;28;1071;-29
2022/05/10 06:41:31;;;;;;;;;;;;;;;25.85;23.75;101348.91;4998690;28;948;-28
2022/05/10 06:43:57;;;;;;;;;;;;;;;26.17;24.10;101355.50;4999161;28;794;-28
2022/05/10 06:46:22;;;;;;;;;;;;;;;26.25;22.81;101354.66;4997824;28;830;-29
2022/05/10 06:48:47;;;;;;;;;;;;;;;26.06;22.28;101347.69;4997869;28;1894;-29
2022/05/10 06:51:13;;;;;;;;;;;;;;;25.98;23.01;101349.31;4998805;28;863;-28
2022/05/10 06:53:39;;;;;;;;;;;;;;;25.99;23.26;101355.56;4998489;28;771;-28
2022/05/10 06:56:04;;;;;;;;;;;;;;;26.20;23.65;101354.31;4997856;28;730;-28
2022/05/10 06:58:30;;;;;;;;;;;;;;;26.01;23.67;101353.53;4998593;28;774;-29
2022/05/10 07:00:55;;;;;;;;;;;;;;;26.17;23.56;101355.50;4997987;28;833;-28
2022/05/10 07:03:26;;;;;;;;;;;;;;;26.04;23.72;101358.63;4998062;28;887;-29
2022/05/10 07:05:51;;;;;;;;;;;;;;;26.26;23.59;101365.28;4998634;28;898;-28
2022/05/10 07:08:16;;;;;;;;;;;;;;;26.40;24.15;101360.31;4997712;28;1894;-26
2022/05/10 07:10:42;;;;;;;;;;;;;;;26.26;23.17;101353.66;4997927;28;849;-27
2022/05/10 07:13:07;;;;;;;;;;;;;;;26.13;23.09;101349.56;4997908;28;842;-29
2022/05/10 07:15:33;;;;;;;;;;;;;;;26.17;23.32;101353.63;4998007;28;862;-29
2022/05/10 07:17:58;;;;;;;;;;;;;;;26.36;23.61;101350.88;4997968;28;794;-29
2022/05/10 07:20:23;;;;;;;;;;;;;;;26.67;23.64;101350.28;4997618;28;1038;-27
2022/05/10 07:22:48;;;;;;;;;;;;;;;26.69;23.31;101356.38;4997583;28;850;-28
2022/05/10 07:25:15;;;;;;;;;;;;;;;26.71;22.87;101356.19;4997884;28;822;-28
2022/05/10 07:27:41;;;;;;;;;;;;;;;26.72;22.76;101356.03;4991300;28;1072;-28
2022/05/10 07:30:07;;;;;;;;;;;;;;;26.69;23.01;101360.91;4997623;28;1958;-29
2022/05/10 07:32:32;;;;;;;;;;;;;;;26.72;22.71;101363.28;4997522;28;829;-28
2022/05/10 07:35:01;;;;;;;;;;;;;;;26.71;22.47;101364.28;4997436;28;866;-29
2022/05/10 07:37:27;;;;;;;;;;;;;;;25.53;20.67;101357.44;4997101;28;1107;-27
2022/05/10 07:39:52;;;;;;;;;;;;;;;24.87;20.71;101357.72;4997112;28;1095;-29
2022/05/10 07:42:17;;;;;;;;;;;;;;;25.83;21.61;101349.06;4997412;28;1185;-27
2022/05/10 07:44:43;;;;;;;;;;;;;;;26.33;20.72;101356.56;4996970;28;818;-27
2022/05/10 07:47:09;;;;;;;;;;;;;;;26.36;20.57;101356.28;4997565;28;806;-28
2022/05/10 07:49:34;;;;;;;;;;;;;;;26.41;20.48;101360.16;4997103;28;1946;-29
2022/05/10 07:51:59;;;;;;;;;;;;;;;26.43;20.13;101362.69;4996907;28;1265;-27
2022/05/10 07:54:25;;;;;;;;;;;;;;;26.60;20.63;101357.34;4996932;28;839;-27
2022/05/10 07:56:50;;;;;;;;;;;;;;;26.76;20.67;101354.69;4997171;28;965;-29
2022/05/10 07:59:15;;;;;;;;;;;;;;;26.72;20.52;101361.44;4997431;28;801;-28
2022/05/10 08:01:41;;;;;;;;;;;;;;;26.74;20.60;101353.16;4996593;28;802;-29
2022/05/10 08:04:08;;;;;;;;;;;;;;;26.90;21.08;101350.50;4996859;28;1485;-28
2022/05/10 08:06:33;;;;;;;;;;;;;;;26.96;21.63;101356.25;4996868;28;825;-26
2022/05/10 08:08:58;;;;;;;;;;;;;;;27.08;21.55;101359.47;4996488;28;1949;-27
2022/05/10 08:11:23;;;;;;;;;;;;;;;27.05;21.09;101357.94;4996177;28;1289;-29
2022/05/10 08:13:49;;;;;;;;;;;;;;;26.99;21.45;101356.72;4997299;28;771;-28
2022/05/10 08:16:14;;;;;;;;;;;;;;;27.02;20.70;101352.91;4996561;28;858;-29
2022/05/10 08:18:41;;;;;;;;;;;;;;;27.18;20.94;101352.03;4996372;28;874;-29
2022/05/10 08:21:07;;;;;;;;;;;;;;;27.03;20.98;101351.88;4997003;28;995;-29
2022/05/10 08:23:32;;;;;;;;;;;;;;;26.89;20.63;101347.97;4996570;28;1474;-29
2022/05/10 08:25:58;;;;;;;;;;;;;;;26.96;20.86;101354.34;4996787;28;1027;-30
2022/05/10 08:28:24;;;;;;;;;;;;;;;26.84;20.38;101361.09;4997159;28;1903;-30
2022/05/10 08:30:49;;;;;;;;;;;;;;;26.64;20.64;101346.03;4989581;28;818;-30
2022/05/10 08:33:18;;;;;;;;;;;;;;;26.75;20.89;101353.00;4996030;28;830;-28
2022/05/10 08:35:43;;;;;;;;;;;;;;;26.81;21.14;101353.34;4996872;28;791;-26
2022/05/10 08:38:09;;;;;;;;;;;;;;;26.95;20.88;101354.53;4996223;28;743;-30
2022/05/10 08:40:35;;;;;;;;;;;;;;;26.70;20.18;101358.03;4996894;28;835;-29
2022/05/10 08:43:02;;;;;;;;;;;;;;;26.89;19.57;101361.47;4996718;28;882;-29
2022/05/10 08:45:27;;;;;;;;;;;;;;;26.68;20.09;101351.97;4994928;28;1005;-29
2022/05/10 08:47:53;;;;;;;;;;;;;;;26.59;20.05;101353.78;4979698;28;846;-30
2022/05/10 08:50:18;;;;;;;;;;;;;;;26.57;20.49;101342.34;4979394;28;1898;-30
2022/05/10 08:52:44;;;;;;;;;;;;;;;26.64;20.42;101343.34;4995989;28;834;-30
2022/05/10 08:55:10;;;;;;;;;;;;;;;26.67;20.35;101352.13;4996877;28;744;-30
2022/05/10 08:57:35;;;;;;;;;;;;;;;26.59;20.75;101351.09;4978588;28;1001;-30
2022/05/10 09:00:07;;;;;;;;;;;;;;;26.54;20.51;101342.66;4996316;28;896;-30
2022/05/10 09:02:46;;;;;;;;;;;;;;;26.55;20.69;101344.34;4997004;28;866;-29
2022/05/10 09:05:14;;;;;;;;;;;;;;;26.65;20.60;101347.75;4996944;28;802;-29
2022/05/10 09:07:49;;;;;;;;;;;;;;;26.61;20.21;101349.06;4978664;28;854;-29
2022/05/10 09:10:17;;;;;;;;;;;;;;;26.68;20.35;101338.47;4996173;28;1898;-29
2022/05/10 09:12:44;;;;;;;;;;;;;;;26.52;20.55;101345.53;4995930;28;1051;-30
2022/05/10 09:15:10;;;;;;;;;;;;;;;27.04;19.94;101342.78;4978692;28;1229;-28
2022/05/10 09:17:39;;;;;;;;;;;;;;;26.94;19.76;101339.34;4979866;28;819;-29
2022/05/10 09:20:05;;;;;;;;;;;;;;;27.07;19.85;101347.84;4990477;28;1129;-29
2022/05/10 09:22:37;;;;;;;;;;;;;;;26.99;20.02;101348.63;4995746;28;830;-29
2022/05/10 09:25:05;;;;;;;;;;;;;;;26.95;20.26;101349.13;4973218;28;827;-29
2022/05/10 09:27:34;;;;;;;;;;;;;;;26.99;20.07;101345.91;4978287;28;1393;-28
2022/05/10 09:30:00;;;;;;;;;;;;;;;27.03;20.00;101343.78;4995406;28;1906;-28
2022/05/10 09:35:13;;;;;;;;;;;;;;;27.03;20.07;101341.06;4995645;28;795;-28
2022/05/10 09:37:47;;;;;;;;;;;;;;;27.04;19.97;101340.06;4995679;28;850;-27
2022/05/10 09:40:23;;;;;;;;;;;;;;;27.06;20.06;101335.31;4996374;28;873;-29
2022/05/10 09:42:49;;;;;;;;;;;;;;;27.12;19.92;101339.22;4996476;28;882;-29
2022/05/10 09:45:15;;;;;;;;;;;;;;;27.12;20.34;101342.78;4998846;28;853;-29
2022/05/10 09:47:52;;;;;;;;;;;;;;;27.07;19.83;101337.03;4999839;28;732;-30
2022/05/10 09:50:19;;;;;;;;;;;;;;;27.11;20.45;101340.25;4995926;28;1964;-29
2022/05/10 09:52:45;;;;;;;;;;;;;;;27.22;20.16;101339.06;4998707;28;1138;-29
2022/05/10 09:55:31;;;;;;;;;;;;;;;27.16;19.38;101335.16;4998556;28;794;-28
2022/05/10 09:57:59;;;;;;;;;;;;;;;27.19;19.45;101345.66;4998973;28;1543;-28
2022/05/10 10:00:37;;;;;;;;;;;;;;;27.18;19.12;101337.69;4998680;28;834;-29
2022/05/10 10:03:02;;;;;;;;;;;;;;;27.13;19.60;101340.91;4982145;28;826;-29
2022/05/10 10:05:31;;;;;;;;;;;;;;;27.15;19.84;101344.28;4999336;28;953;-29
2022/05/10 10:07:57;;;;;;;;;;;;;;;27.19;20.04;101334.00;4999319;28;790;-28
2022/05/10 10:10:28;;;;;;;;;;;;;;;27.15;19.78;101328.06;4999476;28;1965;-29
2022/05/10 10:12:53;;;;;;;;;;;;;;;26.70;20.99;101333.75;4999242;28;791;-29
2022/05/10 10:15:34;;;;;;;;;;;;;;;27.08;19.94;101325.22;4998438;28;897;-30
2022/05/10 10:18:04;;;;;;;;;;;;;;;27.21;19.89;101330.09;4998824;28;814;-29
2022/05/10 10:20:33;;;;;;;;;;;;;;;27.39;19.90;101329.09;4981828;28;1023;-30
2022/05/10 10:22:59;;;;;;;;;;;;;;;27.14;19.67;101321.81;4998807;28;815;-29
2022/05/10 10:25:41;;;;;;;;;;;;;;;26.90;19.92;101315.41;4998419;28;859;-30
2022/05/10 10:28:07;;;;;;;;;;;;;;;26.95;19.89;101317.59;4975017;28;1906;-30
2022/05/10 10:30:36;;;;;;;;;;;;;;;27.04;19.98;101312.22;4998190;28;920;-30
2022/05/10 10:33:06;;;;;;;;;;;;;;;27.07;19.86;101315.44;4975726;28;827;-29
2022/05/10 10:35:38;;;;;;;;;;;;;;;26.97;20.26;101302.06;4991657;28;1239;-29
2022/05/10 10:38:22;;;;;;;;;;;;;;;26.90;20.15;101312.69;4993792;28;1472;-30
2022/05/10 10:41:13;;;;;;;;;;;;;;;26.73;20.25;101305.56;4997194;28;784;-29
2022/05/10 10:43:57;;;;;;;;;;;;;;;26.67;20.05;101314.34;4987746;28;1410;-27
2022/05/10 10:46:28;;;;;;;;;;;;;;;27.09;19.67;101310.69;4998148;28;900;-30
2022/05/10 10:48:58;;;;;;;;;;;;;;;27.24;19.75;101315.44;4980964;28;1964;-29
2022/05/10 10:51:28;;;;;;;;;;;;;;;27.38;20.95;101312.03;4998089;28;779;-27
2022/05/10 10:53:53;;;;;;;;;;;;;;;27.47;21.05;101298.50;4980994;28;1036;-29
2022/05/10 10:56:31;;;;;;;;;;;;;;;27.71;21.82;101303.03;4980124;28;1088;-30
2022/05/10 10:59:00;;;;;;;;;;;;;;;27.62;21.70;101299.50;4980468;28;771;-31
2022/05/10 11:01:25;;;;;;;;;;;;;;;27.42;20.38;101301.72;4993288;28;1152;-28
2022/05/10 11:03:53;;;;;;;;;;;;;;;27.31;20.13;101300.19;4985302;28;1232;-29
2022/05/10 11:06:22;;;;;;;;;;;;;;;27.35;20.13;101289.91;4990792;28;1401;-29
2022/05/10 11:08:47;;;;;;;;;;;;;;;27.46;20.23;101291.41;4997161;28;1898;-29
2022/05/10 11:11:15;;;;;;;;;;;;;;;27.49;20.18;101294.59;4985844;28;1430;-29
2022/05/10 11:13:53;;;;;;;;;;;;;;;27.50;19.93;101284.66;4990468;28;1465;-29
2022/05/10 11:16:20;;;;;;;;;;;;;;;27.45;19.71;101281.63;4997845;28;889;-29
2022/05/10 11:18:54;;;;;;;;;;;;;;;27.68;19.93;101276.34;4993750;28;1259;-29
2022/05/10 11:21:38;;;;;;;;;;;;;;;27.67;21.58;101277.34;4997965;28;1062;-23
2022/05/10 11:24:22;;;;;;;;;;;;;;;27.46;21.82;101277.91;4997924;28;957;-25
2022/05/10 11:27:35;;;;;;;;;;;;;;;27.10;22.42;101279.13;5047545;27;1413087;-39
2022/05/10 11:30:01;;;;;;;;;;;;;;;27.39;22.14;101267.78;4988628;28;1322;-35
2022/05/10 11:32:32;;;;;;;;;;;;;;;27.45;21.76;101274.34;5072803;28;958;-37
2022/05/10 11:35:16;;;;;;;;;;;;;;;27.46;21.87;101267.09;5093540;28;1915;-36
2022/05/10 11:37:52;;;;;;;;;;;;;;;27.41;21.90;101264.06;5094023;28;837;-37
2022/05/10 11:40:31;;;;;;;;;;;;;;;27.44;22.43;101264.56;5075046;28;914;-38
2022/05/10 11:43:15;;;;;;;;;;;;;;;27.43;22.10;101262.03;5092524;28;860;-37
2022/05/10 11:45:43;;;;;;;;;;;;;;;27.43;22.21;101260.16;5093143;28;817;-36
2022/05/10 11:48:12;;;;;;;;;;;;;;;27.46;22.41;101253.59;5093463;28;901;-36
2022/05/10 11:53:46;;;;;;;;;;;;;;;27.49;22.67;101248.66;5089124;28;632;-38
2022/05/10 11:56:11;;;;;;;;;;;;;;;27.65;22.67;101244.22;5092523;28;1879;-36
2022/05/10 11:58:37;;;;;;;;;;;;;;;27.65;22.69;101248.78;5093040;28;805;-38
2022/05/10 12:01:03;;;;;;;;;;;;;;;27.60;22.55;101238.50;5093194;28;890;-37
2022/05/10 12:03:43;;;;;;;;;;;;;;;27.63;23.02;101240.84;5092817;28;809;-39
2022/05/10 12:06:24;;;;;;;;;;;;;;;27.63;22.21;101233.59;5092835;28;1237;-37
2022/05/10 12:08:49;;;;;;;;;;;;;;;27.59;22.01;101239.53;5093072;28;891;-33
2022/05/10 12:11:27;;;;;;;;;;;;;;;27.60;22.26;101236.66;5075285;28;832;-36
2022/05/10 12:22:07;;;;;;;;;;;;;;;27.54;22.61;101217.59;5090760;28;1065;-34
2022/05/10 12:24:32;;;;;;;;;;;;;;;27.54;22.67;101221.16;5086353;28;943;-39
2022/05/10 12:27:10;;;;;;;;;;;;;;;27.55;22.77;101222.81;5092374;28;1021;-35
2022/05/10 12:29:38;;;;;;;;;;;;;;;27.50;22.06;101215.25;5086540;28;1028;-34
2022/05/10 12:32:06;;;;;;;;;;;;;;;27.47;22.10;101217.44;5092746;28;882;-36
2022/05/10 12:34:52;;;;;;;;;;;;;;;27.50;22.53;101212.53;5092130;28;832;-38
2022/05/10 12:37:27;;;;;;;;;;;;;;;27.55;22.05;101206.59;5085069;28;830;-38
2022/05/10 12:39:56;;;;;;;;;;;;;;;27.51;22.67;101208.81;5079297;28;845;-39
2022/05/10 12:42:40;;;;;;;;;;;;;;;27.53;22.13;101200.53;5079061;28;754;-38
2022/05/10 12:45:24;;;;;;;;;;;;;;;27.57;22.82;101195.63;5071708;28;828;-37
2022/05/10 12:47:56;;;;;;;;;;;;;;;27.54;21.91;101204.06;5079138;28;750;-38
2022/05/10 12:50:24;;;;;;;;;;;;;;;27.60;22.29;101197.97;5078416;28;892;-37
2022/05/10 12:52:49;;;;;;;;;;;;;;;27.59;22.41;101196.28;5079365;28;747;-39
2022/05/10 12:55:21;;;;;;;;;;;;;;;27.21;20.17;101199.63;5078582;28;1902;-36
2022/05/10 12:57:49;;;;;;;;;;;;;;;26.23;17.57;101184.09;5078489;28;798;-36
2022/05/10 13:00:16;;;;;;;;;;;;;;;26.35;17.66;101188.19;5078513;28;841;-39
2022/05/10 13:02:43;;;;;;;;;;;;;;;26.61;19.79;101191.75;5078304;28;813;-39
2022/05/10 13:05:13;;;;;;;;;;;;;;;26.75;19.68;101188.38;5060455;28;999;-39
2022/05/10 13:07:53;;;;;;;;;;;;;;;26.95;21.81;101193.41;5060794;28;916;-37
2022/05/10 13:10:21;;;;;;;;;;;;;;;26.71;23.21;101183.47;5060101;28;885;-40
2022/05/10 13:12:59;;;;;;;;;;;;;;;26.64;23.18;101178.75;5059217;28;1086;-40
2022/05/10 13:15:26;;;;;;;;;;;;;;;26.68;22.63;101179.25;5078116;28;1959;-37
2022/05/10 13:17:52;;;;;;;;;;;;;;;26.65;22.73;101171.50;5072278;28;750;-39